KLWS/LWS METAR and TAF weather

Enter ICAO airport designator
Station Type Date Time Source
KLWS METAR 2021/05/13 04:56 UTC NOAA

KLWS 130456Z 16005KT 10SM CLR 19/00 A3003 RMK AO2 SLP166 T01940000


Station Type Date Time Source
KLWS Decoded METAR 2021/05/13 04:56 UTC NOAA

LEWISTON NEZ PERCE CO AIRPORT , ID, United States (KLWS) 46-22N 117-01W 438M
May 13, 2021 - 12:56 AM EDT / 2021.05.13 0456 UTC
Wind: from the SSE (160 degrees) at 6 MPH (5 KT):0
Visibility: 10 mile(s):0
Sky conditions: clear
Temperature: 66.9 F (19.4 C)
Dew Point: 32.0 F (0.0 C)
Relative Humidity: 27%
Pressure (altimeter): 30.03 in. Hg (1016 hPa)
ob: KLWS 130456Z 16005KT 10SM CLR 19/00 A3003 RMK AO2 SLP166 T01940000
cycle: 5

Station Type Date Time Source
KLWS TAF 2021/05/13 06:21 UTC NOAA

TAF KLWS 130520Z 1306/1406 VRB03KT P6SM SKC
FM131700 33006KT P6SM BKN250

Example: see airport list